sensor_id;sensor_type;location;lat;lon;timestamp;pressure;altitude;pressure_sealevel;temperature
78961;BMP280;68362;45.970;12.646;2023-03-08T00:00:54;100059.81;;;3.64
78961;BMP280;68362;45.970;12.646;2023-03-08T00:01:55;100066.16;;;3.61
78961;BMP280;68362;45.970;12.646;2023-03-08T00:02:57;100061.34;;;3.58
78961;BMP280;68362;45.970;12.646;2023-03-08T00:03:59;100070.13;;;3.57
78961;BMP280;68362;45.970;12.646;2023-03-08T00:05:01;100076.25;;;3.56
78961;BMP280;68362;45.970;12.646;2023-03-08T00:06:05;100073.88;;;3.55
78961;BMP280;68362;45.970;12.646;2023-03-08T00:07:07;100076.47;;;3.55
78961;BMP280;68362;45.970;12.646;2023-03-08T00:08:09;100077.63;;;3.52
78961;BMP280;68362;45.970;12.646;2023-03-08T00:09:11;100079.59;;;3.50
78961;BMP280;68362;45.970;12.646;2023-03-08T00:10:12;100077.00;;;3.50
78961;BMP280;68362;45.970;12.646;2023-03-08T00:11:15;100066.63;;;3.50
78961;BMP280;68362;45.970;12.646;2023-03-08T00:12:18;100072.63;;;3.50
78961;BMP280;68362;45.970;12.646;2023-03-08T00:13:20;100071.19;;;3.48
78961;BMP280;68362;45.970;12.646;2023-03-08T00:14:22;100067.00;;;3.47
78961;BMP280;68362;45.970;12.646;2023-03-08T00:15:23;100070.56;;;3.46
78961;BMP280;68362;45.970;12.646;2023-03-08T00:16:25;100063.75;;;3.45
78961;BMP280;68362;45.970;12.646;2023-03-08T00:17:27;100069.31;;;3.42
78961;BMP280;68362;45.970;12.646;2023-03-08T00:18:29;100072.91;;;3.41
78961;BMP280;68362;45.970;12.646;2023-03-08T00:19:30;100072.09;;;3.40
78961;BMP280;68362;45.970;12.646;2023-03-08T00:20:32;100070.69;;;3.38
78961;BMP280;68362;45.970;12.646;2023-03-08T00:21:34;100065.66;;;3.36
78961;BMP280;68362;45.970;12.646;2023-03-08T00:22:40;100069.25;;;3.35
78961;BMP280;68362;45.970;12.646;2023-03-08T00:23:42;100065.06;;;3.34
78961;BMP280;68362;45.970;12.646;2023-03-08T00:24:44;100065.06;;;3.34
78961;BMP280;68362;45.970;12.646;2023-03-08T00:25:51;100068.81;;;3.32
78961;BMP280;68362;45.970;12.646;2023-03-08T00:26:53;100070.59;;;3.31
78961;BMP280;68362;45.970;12.646;2023-03-08T00:27:54;100068.81;;;3.32
78961;BMP280;68362;45.970;12.646;2023-03-08T00:28:56;100072.19;;;3.32
78961;BMP280;68362;45.970;12.646;2023-03-08T00:29:58;100067.81;;;3.33
78961;BMP280;68362;45.970;12.646;2023-03-08T00:31:05;100081.94;;;3.30
78961;BMP280;68362;45.970;12.646;2023-03-08T00:32:07;100075.16;;;3.29
78961;BMP280;68362;45.970;12.646;2023-03-08T00:33:09;100080.88;;;3.24
78961;BMP280;68362;45.970;12.646;2023-03-08T00:34:10;100082.22;;;3.20
78961;BMP280;68362;45.970;12.646;2023-03-08T00:35:12;100084.19;;;3.18
78961;BMP280;68362;45.970;12.646;2023-03-08T00:36:16;100082.59;;;3.17
78961;BMP280;68362;45.970;12.646;2023-03-08T00:37:19;100086.31;;;3.15
78961;BMP280;68362;45.970;12.646;2023-03-08T00:38:20;100082.94;;;3.14
78961;BMP280;68362;45.970;12.646;2023-03-08T00:39:22;100091.69;;;3.13
78961;BMP280;68362;45.970;12.646;2023-03-08T00:40:24;100091.84;;;3.12
78961;BMP280;68362;45.970;12.646;2023-03-08T00:41:25;100084.31;;;3.10
78961;BMP280;68362;45.970;12.646;2023-03-08T00:42:27;100083.47;;;3.10
78961;BMP280;68362;45.970;12.646;2023-03-08T00:43:29;100074.91;;;3.09
78961;BMP280;68362;45.970;12.646;2023-03-08T00:44:31;100087.84;;;3.09
78961;BMP280;68362;45.970;12.646;2023-03-08T00:45:33;100081.06;;;3.08
78961;BMP280;68362;45.970;12.646;2023-03-08T00:46:35;100077.03;;;3.06
78961;BMP280;68362;45.970;12.646;2023-03-08T00:47:36;100083.81;;;3.07
78961;BMP280;68362;45.970;12.646;2023-03-08T00:48:38;100075.59;;;3.03
78961;BMP280;68362;45.970;12.646;2023-03-08T00:49:40;100074.00;;;3.02
78961;BMP280;68362;45.970;12.646;2023-03-08T00:50:42;100067.53;;;2.98
78961;BMP280;68362;45.970;12.646;2023-03-08T00:51:44;100072.16;;;2.96
78961;BMP280;68362;45.970;12.646;2023-03-08T00:52:46;100070.88;;;2.92
78961;BMP280;68362;45.970;12.646;2023-03-08T00:53:47;100072.84;;;2.90
78961;BMP280;68362;45.970;12.646;2023-03-08T00:54:49;100071.06;;;2.90
78961;BMP280;68362;45.970;12.646;2023-03-08T00:55:57;100077.03;;;2.91
78961;BMP280;68362;45.970;12.646;2023-03-08T00:56:59;100076.25;;;2.90
78961;BMP280;68362;45.970;12.646;2023-03-08T00:58:00;100066.66;;;2.91
78961;BMP280;68362;45.970;12.646;2023-03-08T00:59:02;100068.47;;;2.90
78961;BMP280;68362;45.970;12.646;2023-03-08T01:00:04;100067.03;;;2.88
78961;BMP280;68362;45.970;12.646;2023-03-08T01:01:14;100055.06;;;2.87
78961;BMP280;68362;45.970;12.646;2023-03-08T01:02:16;100054.22;;;2.86
78961;BMP280;68362;45.970;12.646;2023-03-08T01:03:18;100056.66;;;2.88
78961;BMP280;68362;45.970;12.646;2023-03-08T01:04:22;100047.28;;;2.87
78961;BMP280;68362;45.970;12.646;2023-03-08T01:05:23;100054.41;;;2.85
78961;BMP280;68362;45.970;12.646;2023-03-08T01:06:25;100047.84;;;2.82
78961;BMP280;68362;45.970;12.646;2023-03-08T01:07:27;100050.56;;;2.81
78961;BMP280;68362;45.970;12.646;2023-03-08T01:08:29;100045.41;;;2.81
78961;BMP280;68362;45.970;12.646;2023-03-08T01:09:30;100048.97;;;2.80
78961;BMP280;68362;45.970;12.646;2023-03-08T01:10:32;100045.75;;;2.77
78961;BMP280;68362;45.970;12.646;2023-03-08T01:11:34;100045.75;;;2.77
78961;BMP280;68362;45.970;12.646;2023-03-08T01:12:37;100052.91;;;2.75
78961;BMP280;68362;45.970;12.646;2023-03-08T01:13:39;100048.69;;;2.74
78961;BMP280;68362;45.970;12.646;2023-03-08T01:14:41;100046.09;;;2.74
78961;BMP280;68362;45.970;12.646;2023-03-08T01:15:42;100054.06;;;2.73
78961;BMP280;68362;45.970;12.646;2023-03-08T01:16:44;100050.47;;;2.74
78961;BMP280;68362;45.970;12.646;2023-03-08T01:17:45;100055.31;;;2.77
78961;BMP280;68362;45.970;12.646;2023-03-08T01:18:47;100057.28;;;2.75
78961;BMP280;68362;45.970;12.646;2023-03-08T01:19:49;100061.47;;;2.76
78961;BMP280;68362;45.970;12.646;2023-03-08T01:20:58;100059.06;;;2.74
78961;BMP280;68362;45.970;12.646;2023-03-08T01:22:01;100061.63;;;2.74
78961;BMP280;68362;45.970;12.646;2023-03-08T01:23:02;100060.84;;;2.74
78961;BMP280;68362;45.970;12.646;2023-03-08T01:24:04;100060.19;;;2.72
78961;BMP280;68362;45.970;12.646;2023-03-08T01:25:06;100056.81;;;2.71
78961;BMP280;68362;45.970;12.646;2023-03-08T01:26:14;100051.63;;;2.71
78961;BMP280;68362;45.970;12.646;2023-03-08T01:27:17;100051.47;;;2.73
78961;BMP280;68362;45.970;12.646;2023-03-08T01:28:18;100041.75;;;2.75
78961;BMP280;68362;45.970;12.646;2023-03-08T01:29:20;100049.53;;;2.75
78961;BMP280;68362;45.970;12.646;2023-03-08T01:30:21;100034.94;;;2.74
78961;BMP280;68362;45.970;12.646;2023-03-08T01:31:25;100034.94;;;2.74
78961;BMP280;68362;45.970;12.646;2023-03-08T01:32:28;100028.31;;;2.71
78961;BMP280;68362;45.970;12.646;2023-03-08T01:33:29;100024.75;;;2.72
78961;BMP280;68362;45.970;12.646;2023-03-08T01:34:31;100026.53;;;2.72
78961;BMP280;68362;45.970;12.646;2023-03-08T01:35:32;100025.72;;;2.71
78961;BMP280;68362;45.970;12.646;2023-03-08T01:36:34;100017.34;;;2.69
78961;BMP280;68362;45.970;12.646;2023-03-08T01:37:36;100021.69;;;2.69
78961;BMP280;68362;45.970;12.646;2023-03-08T01:38:37;100015.72;;;2.68
78961;BMP280;68362;45.970;12.646;2023-03-08T01:39:39;100019.94;;;2.69
78961;BMP280;68362;45.970;12.646;2023-03-08T01:40:41;100017.34;;;2.69
78961;BMP280;68362;45.970;12.646;2023-03-08T01:41:42;100021.91;;;2.67
78961;BMP280;68362;45.970;12.646;2023-03-08T01:42:44;100020.31;;;2.66
78961;BMP280;68362;45.970;12.646;2023-03-08T01:43:46;100022.06;;;2.66
78961;BMP280;68362;45.970;12.646;2023-03-08T01:44:57;100021.47;;;2.64
78961;BMP280;68362;45.970;12.646;2023-03-08T01:46:04;100026.47;;;2.65
78961;BMP280;68362;45.970;12.646;2023-03-08T01:47:13;100028.44;;;2.63
78961;BMP280;68362;45.970;12.646;2023-03-08T01:48:19;100032.78;;;2.63
78961;BMP280;68362;45.970;12.646;2023-03-08T01:50:24;100027.16;;;2.59
78961;BMP280;68362;45.970;12.646;2023-03-08T01:51:34;100037.50;;;2.59
78961;BMP280;68362;45.970;12.646;2023-03-08T01:52:41;100045.47;;;2.58
78961;BMP280;68362;45.970;12.646;2023-03-08T01:53:44;100042.06;;;2.57
78961;BMP280;68362;45.970;12.646;2023-03-08T01:54:46;100045.91;;;2.61
78961;BMP280;68362;45.970;12.646;2023-03-08T01:55:48;100038.78;;;2.63
78961;BMP280;68362;45.970;12.646;2023-03-08T01:56:52;100044.28;;;2.60
78961;BMP280;68362;45.970;12.646;2023-03-08T01:57:55;100033.94;;;2.60
78961;BMP280;68362;45.970;12.646;2023-03-08T01:58:57;100044.28;;;2.60
78961;BMP280;68362;45.970;12.646;2023-03-08T02:00:21;100043.50;;;2.60
78961;BMP280;68362;45.970;12.646;2023-03-08T02:01:25;100046.28;;;2.58
78961;BMP280;68362;45.970;12.646;2023-03-08T02:02:31;100044.28;;;2.60
78961;BMP280;68362;45.970;12.646;2023-03-08T02:03:34;100049.47;;;2.60
78961;BMP280;68362;45.970;12.646;2023-03-08T02:04:36;100041.88;;;2.59
78961;BMP280;68362;45.970;12.646;2023-03-08T02:05:42;100042.69;;;2.59
78961;BMP280;68362;45.970;12.646;2023-03-08T02:06:43;100051.44;;;2.58
78961;BMP280;68362;45.970;12.646;2023-03-08T02:07:45;100047.88;;;2.59
78961;BMP280;68362;45.970;12.646;2023-03-08T02:08:47;100052.41;;;2.57
78961;BMP280;68362;45.970;12.646;2023-03-08T02:09:49;100047.41;;;2.56
78961;BMP280;68362;45.970;12.646;2023-03-08T02:10:51;100048.22;;;2.56
78961;BMP280;68362;45.970;12.646;2023-03-08T02:11:57;100047.41;;;2.56
78961;BMP280;68362;45.970;12.646;2023-03-08T02:12:59;100046.63;;;2.55
78961;BMP280;68362;45.970;12.646;2023-03-08T02:14:02;100044.38;;;2.52
78961;BMP280;68362;45.970;12.646;2023-03-08T02:15:04;100043.38;;;2.53
78961;BMP280;68362;45.970;12.646;2023-03-08T02:16:09;100038.22;;;2.53
78961;BMP280;68362;45.970;12.646;2023-03-08T02:17:12;100038.22;;;2.53
78961;BMP280;68362;45.970;12.646;2023-03-08T02:18:14;100038.84;;;2.55
78961;BMP280;68362;45.970;12.646;2023-03-08T02:19:22;100038.06;;;2.55
78961;BMP280;68362;45.970;12.646;2023-03-08T02:20:35;100030.44;;;2.53
78961;BMP280;68362;45.970;12.646;2023-03-08T02:21:36;100029.63;;;2.52
78961;BMP280;68362;45.970;12.646;2023-03-08T02:22:40;100035.63;;;2.53
78961;BMP280;68362;45.970;12.646;2023-03-08T02:23:42;100038.59;;;2.50
78961;BMP280;68362;45.970;12.646;2023-03-08T02:24:43;100040.19;;;2.51
78961;BMP280;68362;45.970;12.646;2023-03-08T02:25:52;100044.38;;;2.52
78961;BMP280;68362;45.970;12.646;2023-03-08T02:26:57;100046.19;;;2.51
78961;BMP280;68362;45.970;12.646;2023-03-08T02:28:00;100044.56;;;2.50
78961;BMP280;68362;45.970;12.646;2023-03-08T02:29:03;100049.75;;;2.50
78961;BMP280;68362;45.970;12.646;2023-03-08T02:30:05;100050.53;;;2.51
78961;BMP280;68362;45.970;12.646;2023-03-08T02:31:07;100056.56;;;2.51
78961;BMP280;68362;45.970;12.646;2023-03-08T02:32:09;100054.72;;;2.52
78961;BMP280;68362;45.970;12.646;2023-03-08T02:33:10;100074.69;;;2.51
78961;BMP280;68362;45.970;12.646;2023-03-08T02:34:12;100067.69;;;2.52
78961;BMP280;68362;45.970;12.646;2023-03-08T02:35:14;100072.09;;;2.51
78961;BMP280;68362;45.970;12.646;2023-03-08T02:36:15;100059.47;;;2.48
78961;BMP280;68362;45.970;12.646;2023-03-08T02:37:17;100066.41;;;2.48
78961;BMP280;68362;45.970;12.646;2023-03-08T02:38:20;100069.34;;;2.45
78961;BMP280;68362;45.970;12.646;2023-03-08T02:39:21;100066.75;;;2.45
78961;BMP280;68362;45.970;12.646;2023-03-08T02:40:23;100064.81;;;2.47
78961;BMP280;68362;45.970;12.646;2023-03-08T02:41:25;100070.00;;;2.47
78961;BMP280;68362;45.970;12.646;2023-03-08T02:42:27;100064.81;;;2.47
78961;BMP280;68362;45.970;12.646;2023-03-08T02:43:28;100067.75;;;2.44
78961;BMP280;68362;45.970;12.646;2023-03-08T02:44:30;100076.31;;;2.44
78961;BMP280;68362;45.970;12.646;2023-03-08T02:45:32;100071.94;;;2.45
78961;BMP280;68362;45.970;12.646;2023-03-08T02:46:34;100079.91;;;2.43
78961;BMP280;68362;45.970;12.646;2023-03-08T02:47:36;100077.47;;;2.42
78961;BMP280;68362;45.970;12.646;2023-03-08T02:48:38;100079.44;;;2.40
78961;BMP280;68362;45.970;12.646;2023-03-08T02:49:40;100080.25;;;2.40
78961;BMP280;68362;45.970;12.646;2023-03-08T02:50:41;100087.22;;;2.40
78961;BMP280;68362;45.970;12.646;2023-03-08T02:51:43;100082.19;;;2.38
78961;BMP280;68362;45.970;12.646;2023-03-08T02:52:44;100081.38;;;2.38
78961;BMP280;68362;45.970;12.646;2023-03-08T02:53:46;100088.97;;;2.39
78961;BMP280;68362;45.970;12.646;2023-03-08T02:54:48;100088.00;;;2.40
78961;BMP280;68362;45.970;12.646;2023-03-08T02:55:49;100085.41;;;2.40
78961;BMP280;68362;45.970;12.646;2023-03-08T02:56:51;100084.63;;;2.40
78961;BMP280;68362;45.970;12.646;2023-03-08T02:57:52;100085.56;;;2.39
78961;BMP280;68362;45.970;12.646;2023-03-08T02:58:54;100083.97;;;2.38
78961;BMP280;68362;45.970;12.646;2023-03-08T02:59:56;100082.19;;;2.38
78961;BMP280;68362;45.970;12.646;2023-03-08T03:00:57;100082.34;;;2.37
78961;BMP280;68362;45.970;12.646;2023-03-08T03:01:59;100074.56;;;2.37
78961;BMP280;68362;45.970;12.646;2023-03-08T03:03:01;100084.16;;;2.36
78961;BMP280;68362;45.970;12.646;2023-03-08T03:04:02;100088.53;;;2.36
78961;BMP280;68362;45.970;12.646;2023-03-08T03:05:06;100087.91;;;2.34
78961;BMP280;68362;45.970;12.646;2023-03-08T03:06:17;100090.47;;;2.34
78961;BMP280;68362;45.970;12.646;2023-03-08T03:07:18;100088.06;;;2.32
78961;BMP280;68362;45.970;12.646;2023-03-08T03:08:20;100091.66;;;2.31
78961;BMP280;68362;45.970;12.646;2023-03-08T03:09:22;100089.06;;;2.31
78961;BMP280;68362;45.970;12.646;2023-03-08T03:10:23;100088.25;;;2.31
78961;BMP280;68362;45.970;12.646;2023-03-08T03:11:25;100095.03;;;2.32
78961;BMP280;68362;45.970;12.646;2023-03-08T03:12:28;100088.25;;;2.31
78961;BMP280;68362;45.970;12.646;2023-03-08T03:13:30;100084.03;;;2.29
78961;BMP280;68362;45.970;12.646;2023-03-08T03:14:31;100088.25;;;2.31
78961;BMP280;68362;45.970;12.646;2023-03-08T03:15:36;100092.59;;;2.30
78961;BMP280;68362;45.970;12.646;2023-03-08T03:16:38;100084.84;;;2.30
78961;BMP280;68362;45.970;12.646;2023-03-08T03:17:40;100094.41;;;2.29
78961;BMP280;68362;45.970;12.646;2023-03-08T03:18:42;100091.81;;;2.29
78961;BMP280;68362;45.970;12.646;2023-03-08T03:19:44;100092.47;;;2.32
78961;BMP280;68362;45.970;12.646;2023-03-08T03:20:45;100094.84;;;2.33
78961;BMP280;68362;45.970;12.646;2023-03-08T03:21:47;100090.66;;;2.32
78961;BMP280;68362;45.970;12.646;2023-03-08T03:22:49;100095.84;;;2.32
78961;BMP280;68362;45.970;12.646;2023-03-08T03:23:53;100098.25;;;2.34
78961;BMP280;68362;45.970;12.646;2023-03-08T03:24:55;100097.28;;;2.35
78961;BMP280;68362;45.970;12.646;2023-03-08T03:26:07;100098.25;;;2.34
78961;BMP280;68362;45.970;12.646;2023-03-08T03:27:08;100100.03;;;2.33
78961;BMP280;68362;45.970;12.646;2023-03-08T03:28:10;100098.25;;;2.34
78961;BMP280;68362;45.970;12.646;2023-03-08T03:29:12;100095.66;;;2.34
78961;BMP280;68362;45.970;12.646;2023-03-08T03:30:13;100094.69;;;2.35
78961;BMP280;68362;45.970;12.646;2023-03-08T03:31:18;100107.66;;;2.35
78961;BMP280;68362;45.970;12.646;2023-03-08T03:32:20;100098.09;;;2.35
78961;BMP280;68362;45.970;12.646;2023-03-08T03:33:21;100104.06;;;2.36
78961;BMP280;68362;45.970;12.646;2023-03-08T03:34:23;100097.28;;;2.35
78961;BMP280;68362;45.970;12.646;2023-03-08T03:35:25;100102.47;;;2.35
78961;BMP280;68362;45.970;12.646;2023-03-08T03:36:27;100101.81;;;2.33
78961;BMP280;68362;45.970;12.646;2023-03-08T03:37:28;100109.25;;;2.36
78961;BMP280;68362;45.970;12.646;2023-03-08T03:38:30;100107.66;;;2.35
78961;BMP280;68362;45.970;12.646;2023-03-08T03:39:38;100104.06;;;2.36
78961;BMP280;68362;45.970;12.646;2023-03-08T03:40:40;100110.06;;;2.36
78961;BMP280;68362;45.970;12.646;2023-03-08T03:41:41;100100.84;;;2.34
78961;BMP280;68362;45.970;12.646;2023-03-08T03:42:43;100101.66;;;2.34
78961;BMP280;68362;45.970;12.646;2023-03-08T03:43:45;100108.78;;;2.32
78961;BMP280;68362;45.970;12.646;2023-03-08T03:44:47;100111.53;;;2.31
78961;BMP280;68362;45.970;12.646;2023-03-08T03:45:56;100110.91;;;2.28
78961;BMP280;68362;45.970;12.646;2023-03-08T03:46:58;100108.47;;;2.27
78961;BMP280;68362;45.970;12.646;2023-03-08T03:48:00;100118.69;;;2.28
78961;BMP280;68362;45.970;12.646;2023-03-08T03:49:02;100114.13;;;2.31
78961;BMP280;68362;45.970;12.646;2023-03-08T03:50:03;100123.53;;;2.32
78961;BMP280;68362;45.970;12.646;2023-03-08T03:51:10;100115.91;;;2.30
78961;BMP280;68362;45.970;12.646;2023-03-08T03:52:12;100127.06;;;2.31
78961;BMP280;68362;45.970;12.646;2023-03-08T03:53:14;100119.94;;;2.33
78961;BMP280;68362;45.970;12.646;2023-03-08T03:54:15;100122.88;;;2.29
78961;BMP280;68362;45.970;12.646;2023-03-08T03:55:17;100128.22;;;2.28
78961;BMP280;68362;45.970;12.646;2023-03-08T03:56:25;100132.13;;;2.24
78961;BMP280;68362;45.970;12.646;2023-03-08T03:57:27;100134.59;;;2.17
78961;BMP280;68362;45.970;12.646;2023-03-08T03:58:28;100130.75;;;2.13
78961;BMP280;68362;45.970;12.646;2023-03-08T03:59:30;100130.25;;;2.10
78961;BMP280;68362;45.970;12.646;2023-03-08T04:00:33;100124.63;;;2.06
78961;BMP280;68362;45.970;12.646;2023-03-08T04:01:35;100121.59;;;2.02
78961;BMP280;68362;45.970;12.646;2023-03-08T04:02:36;100126.13;;;2.00
78961;BMP280;68362;45.970;12.646;2023-03-08T04:03:38;100116.91;;;1.98
78961;BMP280;68362;45.970;12.646;2023-03-08T04:04:40;100118.06;;;1.95
78961;BMP280;68362;45.970;12.646;2023-03-08T04:05:41;100115.66;;;1.94
78961;BMP280;68362;45.970;12.646;2023-03-08T04:06:43;100115.66;;;1.94
78961;BMP280;68362;45.970;12.646;2023-03-08T04:07:45;100113.06;;;1.94
78961;BMP280;68362;45.970;12.646;2023-03-08T04:08:47;100118.06;;;1.95
78961;BMP280;68362;45.970;12.646;2023-03-08T04:09:49;100117.25;;;1.95
78961;BMP280;68362;45.970;12.646;2023-03-08T04:10:50;100114.66;;;1.95
78961;BMP280;68362;45.970;12.646;2023-03-08T04:11:52;100126.66;;;1.96
78961;BMP280;68362;45.970;12.646;2023-03-08T04:12:53;100122.59;;;1.93
78961;BMP280;68362;45.970;12.646;2023-03-08T04:13:55;100122.75;;;1.92
78961;BMP280;68362;45.970;12.646;2023-03-08T04:14:57;100129.06;;;1.89
78961;BMP280;68362;45.970;12.646;2023-03-08T04:15:59;100125.53;;;1.90
78961;BMP280;68362;45.970;12.646;2023-03-08T04:17:01;100128.28;;;1.89
78961;BMP280;68362;45.970;12.646;2023-03-08T04:18:02;100133.09;;;1.92
78961;BMP280;68362;45.970;12.646;2023-03-08T04:19:10;100131.50;;;1.91
78961;BMP280;68362;45.970;12.646;2023-03-08T04:20:12;100138.63;;;1.89
78961;BMP280;68362;45.970;12.646;2023-03-08T04:21:14;100135.69;;;1.92
78961;BMP280;68362;45.970;12.646;2023-03-08T04:22:16;100131.31;;;1.92
78961;BMP280;68362;45.970;12.646;2023-03-08T04:23:18;100137.16;;;1.94
78961;BMP280;68362;45.970;12.646;2023-03-08T04:24:19;100134.22;;;1.97
78961;BMP280;68362;45.970;12.646;2023-03-08T04:25:21;100132.94;;;2.01
78961;BMP280;68362;45.970;12.646;2023-03-08T04:26:23;100136.91;;;2.04
78961;BMP280;68362;45.970;12.646;2023-03-08T04:27:25;100140.63;;;2.10
78961;BMP280;68362;45.970;12.646;2023-03-08T04:28:27;100131.06;;;2.10
78961;BMP280;68362;45.970;12.646;2023-03-08T04:29:29;100145.44;;;2.13
78961;BMP280;68362;45.970;12.646;2023-03-08T04:30:31;100138.19;;;2.16
78961;BMP280;68362;45.970;12.646;2023-03-08T04:31:33;100137.84;;;2.19
78961;BMP280;68362;45.970;12.646;2023-03-08T04:32:35;100148.78;;;2.21
78961;BMP280;68362;45.970;12.646;2023-03-08T04:33:37;100142.81;;;2.21
78961;BMP280;68362;45.970;12.646;2023-03-08T04:34:38;100151.38;;;2.21
78961;BMP280;68362;45.970;12.646;2023-03-08T04:35:40;100156.06;;;2.26
78961;BMP280;68362;45.970;12.646;2023-03-08T04:36:42;100153.94;;;2.29
78961;BMP280;68362;45.970;12.646;2023-03-08T04:37:43;100162.00;;;2.35
78961;BMP280;68362;45.970;12.646;2023-03-08T04:38:49;100156.81;;;2.35
78961;BMP280;68362;45.970;12.646;2023-03-08T04:39:51;100169.59;;;2.36
78961;BMP280;68362;45.970;12.646;2023-03-08T04:40:53;100158.25;;;2.37
78961;BMP280;68362;45.970;12.646;2023-03-08T04:42:27;100162.59;;;2.37
78961;BMP280;68362;45.970;12.646;2023-03-08T04:43:28;100162.59;;;2.37
78961;BMP280;68362;45.970;12.646;2023-03-08T04:44:30;100155.47;;;2.39
78961;BMP280;68362;45.970;12.646;2023-03-08T04:45:32;100155.47;;;2.39
78961;BMP280;68362;45.970;12.646;2023-03-08T04:46:33;100154.34;;;2.41
78961;BMP280;68362;45.970;12.646;2023-03-08T04:47:35;100156.44;;;2.46
78961;BMP280;68362;45.970;12.646;2023-03-08T04:48:37;100153.19;;;2.44
78961;BMP280;68362;45.970;12.646;2023-03-08T04:49:39;100148.00;;;2.44
78961;BMP280;68362;45.970;12.646;2023-03-08T04:50:40;100152.38;;;2.43
78961;BMP280;68362;45.970;12.646;2023-03-08T04:51:42;100154.19;;;2.43
78961;BMP280;68362;45.970;12.646;2023-03-08T04:52:43;100150.75;;;2.42
78961;BMP280;68362;45.970;12.646;2023-03-08T04:53:45;100149.97;;;2.42
78961;BMP280;68362;45.970;12.646;2023-03-08T04:54:47;100151.75;;;2.41
78961;BMP280;68362;45.970;12.646;2023-03-08T04:55:49;100154.19;;;2.43
78961;BMP280;68362;45.970;12.646;2023-03-08T04:56:51;100155.94;;;2.42
78961;BMP280;68362;45.970;12.646;2023-03-08T04:57:52;100158.53;;;2.42
78961;BMP280;68362;45.970;12.646;2023-03-08T04:58:54;100168.53;;;2.45
78961;BMP280;68362;45.970;12.646;2023-03-08T04:59:55;100156.59;;;2.44
78961;BMP280;68362;45.970;12.646;2023-03-08T05:00:57;100160.97;;;2.44
78961;BMP280;68362;45.970;12.646;2023-03-08T05:01:59;100161.13;;;2.42
78961;BMP280;68362;45.970;12.646;2023-03-08T05:03:01;100162.91;;;2.42
78961;BMP280;68362;45.970;12.646;2023-03-08T05:04:03;100168.09;;;2.42
78961;BMP280;68362;45.970;12.646;2023-03-08T05:05:05;100163.88;;;2.41
78961;BMP280;68362;45.970;12.646;2023-03-08T05:06:07;100169.41;;;2.38
78961;BMP280;68362;45.970;12.646;2023-03-08T05:07:09;100171.00;;;2.39
78961;BMP280;68362;45.970;12.646;2023-03-08T05:08:11;100171.19;;;2.37
78961;BMP280;68362;45.970;12.646;2023-03-08T05:09:13;100177.34;;;2.36
78961;BMP280;68362;45.970;12.646;2023-03-08T05:10:14;100183.69;;;2.34
78961;BMP280;68362;45.970;12.646;2023-03-08T05:11:22;100178.50;;;2.34
78961;BMP280;68362;45.970;12.646;2023-03-08T05:12:23;100185.31;;;2.35
78961;BMP280;68362;45.970;12.646;2023-03-08T05:13:26;100188.97;;;2.40
78961;BMP280;68362;45.970;12.646;2023-03-08T05:14:28;100188.78;;;2.42
78961;BMP280;68362;45.970;12.646;2023-03-08T05:15:30;100188.19;;;2.40
78961;BMP280;68362;45.970;12.646;2023-03-08T05:16:31;100194.97;;;2.41
78961;BMP280;68362;45.970;12.646;2023-03-08T05:17:33;100198.53;;;2.40
78961;BMP280;68362;45.970;12.646;2023-03-08T05:18:35;100201.13;;;2.40
78961;BMP280;68362;45.970;12.646;2023-03-08T05:19:36;100195.94;;;2.40
78961;BMP280;68362;45.970;12.646;2023-03-08T05:20:38;100195.13;;;2.39
78961;BMP280;68362;45.970;12.646;2023-03-08T05:21:39;100193.34;;;2.40
78961;BMP280;68362;45.970;12.646;2023-03-08T05:22:41;100186.53;;;2.39
78961;BMP280;68362;45.970;12.646;2023-03-08T05:23:59;100191.72;;;2.39
78961;BMP280;68362;45.970;12.646;2023-03-08T05:25:01;100183.31;;;2.37
78961;BMP280;68362;45.970;12.646;2023-03-08T05:26:04;100185.75;;;2.38
78961;BMP280;68362;45.970;12.646;2023-03-08T05:27:07;100187.53;;;2.38
78961;BMP280;68362;45.970;12.646;2023-03-08T05:28:08;100191.06;;;2.37
78961;BMP280;68362;45.970;12.646;2023-03-08T05:29:10;100186.91;;;2.36
78961;BMP280;68362;45.970;12.646;2023-03-08T05:30:12;100188.47;;;2.37
78961;BMP280;68362;45.970;12.646;2023-03-08T05:31:17;100188.69;;;2.35
78961;BMP280;68362;45.970;12.646;2023-03-08T05:32:18;100186.72;;;2.37
78961;BMP280;68362;45.970;12.646;2023-03-08T05:33:21;100186.72;;;2.37
78961;BMP280;68362;45.970;12.646;2023-03-08T05:34:22;100188.34;;;2.38
78961;BMP280;68362;45.970;12.646;2023-03-08T05:35:24;100183.81;;;2.40
78961;BMP280;68362;45.970;12.646;2023-03-08T05:36:26;100192.38;;;2.41
78961;BMP280;68362;45.970;12.646;2023-03-08T05:37:27;100189.59;;;2.42
78961;BMP280;68362;45.970;12.646;2023-03-08T05:38:29;100190.72;;;2.48
78961;BMP280;68362;45.970;12.646;2023-03-08T05:39:31;100193.94;;;2.50
78961;BMP280;68362;45.970;12.646;2023-03-08T05:40:32;100190.38;;;2.51
78961;BMP280;68362;45.970;12.646;2023-03-08T05:41:34;100193.56;;;2.53
78961;BMP280;68362;45.970;12.646;2023-03-08T05:42:36;100194.22;;;2.55
78961;BMP280;68362;45.970;12.646;2023-03-08T05:43:37;100198.25;;;2.58
78961;BMP280;68362;45.970;12.646;2023-03-08T05:44:39;100189.31;;;2.60
78961;BMP280;68362;45.970;12.646;2023-03-08T05:45:41;100194.34;;;2.62
78961;BMP280;68362;45.970;12.646;2023-03-08T05:46:43;100194.81;;;2.65
78961;BMP280;68362;45.970;12.646;2023-03-08T05:47:44;100186.66;;;2.68
78961;BMP280;68362;45.970;12.646;2023-03-08T05:48:46;100191.69;;;2.70
78961;BMP280;68362;45.970;12.646;2023-03-08T05:49:48;100190.53;;;2.72
78961;BMP280;68362;45.970;12.646;2023-03-08T05:50:49;100192.00;;;2.75
78961;BMP280;68362;45.970;12.646;2023-03-08T05:51:51;100187.41;;;2.77
78961;BMP280;68362;45.970;12.646;2023-03-08T05:52:54;100190.47;;;2.81
78961;BMP280;68362;45.970;12.646;2023-03-08T05:53:55;100190.94;;;2.84
78961;BMP280;68362;45.970;12.646;2023-03-08T05:54:57;100184.59;;;2.87
78961;BMP280;68362;45.970;12.646;2023-03-08T05:56:19;100184.41;;;2.88
78961;BMP280;68362;45.970;12.646;2023-03-08T05:57:21;100191.03;;;2.91